createdAt,value
2022-08-25T00:02:06.732Z,100756.72
2022-08-25T00:07:04.905Z,100769.00
2022-08-25T00:12:02.554Z,100773.63
2022-08-25T00:16:59.176Z,100770.94
2022-08-25T00:21:56.228Z,100763.28
2022-08-25T00:26:54.408Z,100760.41
2022-08-25T00:31:52.634Z,100756.69
2022-08-25T00:36:51.066Z,100751.97
2022-08-25T00:41:48.373Z,100736.97
2022-08-25T00:46:47.266Z,100729.56
2022-08-25T00:51:47.168Z,100718.72
2022-08-25T00:56:44.108Z,100719.38
2022-08-25T01:01:40.911Z,100724.09
2022-08-25T01:06:39.030Z,100722.03
2022-08-25T01:11:36.741Z,100722.63
2022-08-25T01:16:34.153Z,100720.00
2022-08-25T01:21:37.122Z,100707.72
2022-08-25T01:26:34.921Z,100704.53
2022-08-25T01:31:31.800Z,100698.53
2022-08-25T01:36:29.544Z,100707.56
2022-08-25T01:41:31.393Z,100696.38
2022-08-25T01:46:28.338Z,100711.00
2022-08-25T01:51:25.543Z,100715.06
2022-08-25T01:56:22.144Z,100702.78
2022-08-25T02:01:20.575Z,100706.66
2022-08-25T02:06:18.512Z,100701.47
2022-08-25T02:11:15.290Z,100696.13
2022-08-25T02:16:16.685Z,100690.38
2022-08-25T02:21:14.175Z,100695.28
2022-08-25T02:26:10.890Z,100693.59
2022-08-25T02:31:07.621Z,100687.84
2022-08-25T02:36:04.729Z,100694.78
2022-08-25T02:41:08.624Z,100693.09
2022-08-25T02:46:06.261Z,100686.69
2022-08-25T02:51:05.249Z,100688.41
2022-08-25T02:56:02.802Z,100685.72
2022-08-25T03:00:59.477Z,100694.22
2022-08-25T03:05:57.105Z,100694.34
2022-08-25T03:10:53.701Z,100701.28
2022-08-25T03:15:51.700Z,100694.28
2022-08-25T03:20:48.485Z,100705.09
2022-08-25T03:26:03.344Z,100710.34
2022-08-25T03:31:01.271Z,100716.63
2022-08-25T03:35:58.667Z,100715.34
2022-08-25T03:40:55.389Z,100720.22
2022-08-25T03:45:52.133Z,100730.84
2022-08-25T03:50:51.918Z,100721.88
2022-08-25T03:55:48.870Z,100731.06
2022-08-25T04:00:47.488Z,100735.50
2022-08-25T04:05:44.214Z,100730.59
2022-08-25T04:10:42.217Z,100727.44
2022-08-25T04:15:41.951Z,100716.13
2022-08-25T04:20:41.314Z,100731.88
2022-08-25T04:25:42.412Z,100732.34
2022-08-25T04:30:41.480Z,100742.81
2022-08-25T04:35:38.458Z,100741.34
2022-08-25T04:40:35.254Z,100739.03
2022-08-25T04:45:36.206Z,100751.88
2022-08-25T04:50:32.953Z,100746.09
2022-08-25T04:55:29.828Z,100746.03
2022-08-25T05:00:26.444Z,100747.06
2022-08-25T05:05:24.124Z,100739.69
2022-08-25T05:10:20.840Z,100738.53
2022-08-25T05:15:36.932Z,100738.31
2022-08-25T05:20:36.237Z,100740.31
2022-08-25T05:25:33.676Z,100746.84
2022-08-25T05:30:30.469Z,100751.41
2022-08-25T05:35:27.137Z,100758.72
2022-08-25T05:40:24.335Z,100755.91
2022-08-25T05:45:21.885Z,100757.50
2022-08-25T05:50:18.931Z,100750.78
2022-08-25T05:55:15.559Z,100749.63
2022-08-25T06:00:12.918Z,100751.13
2022-08-25T06:05:10.848Z,100759.91
2022-08-25T06:10:11.064Z,100756.88
2022-08-25T06:15:08.342Z,100753.25
2022-08-25T06:20:06.188Z,100751.94
2022-08-25T06:25:05.206Z,100747.38
2022-08-25T06:30:07.628Z,100753.59
2022-08-25T06:35:05.316Z,100742.47
2022-08-25T06:40:02.174Z,100742.69
2022-08-25T06:44:59.582Z,100740.94
2022-08-25T06:49:56.203Z,100738.34
2022-08-25T06:54:54.172Z,100744.94
2022-08-25T06:59:53.370Z,100736.81
2022-08-25T07:04:53.063Z,100746.63
2022-08-25T07:09:49.947Z,100743.78
2022-08-25T07:15:03.486Z,100740.28
2022-08-25T07:20:05.599Z,100732.81
2022-08-25T07:25:03.126Z,100738.28
2022-08-25T07:30:00.103Z,100734.25
2022-08-25T07:35:19.789Z,100744.88
2022-08-25T07:40:26.613Z,100740.00
2022-08-25T07:45:29.988Z,100735.03
2022-08-25T07:50:27.600Z,100730.25
2022-08-25T07:55:31.070Z,100732.72
2022-08-25T08:00:39.158Z,100722.66
2022-08-25T08:05:36.534Z,100725.31
2022-08-25T08:15:51.019Z,100718.09
2022-08-25T08:20:48.664Z,100720.34
2022-08-25T08:25:48.788Z,100712.19
2022-08-25T08:30:52.960Z,100692.78
2022-08-25T08:35:59.150Z,100697.50
2022-08-25T08:41:23.037Z,100701.66
2022-08-25T08:46:26.053Z,100702.34
2022-08-25T08:51:33.176Z,100705.75
2022-08-25T08:56:34.858Z,100696.41
2022-08-25T09:01:33.922Z,100686.91
2022-08-25T09:06:38.700Z,100684.44
2022-08-25T09:11:44.663Z,100684.00
2022-08-25T09:16:57.360Z,100678.19
2022-08-25T09:21:57.455Z,100679.34
2022-08-25T09:27:05.662Z,100663.69
2022-08-25T09:32:05.412Z,100663.38
2022-08-25T09:37:02.458Z,100649.50
2022-08-25T09:42:00.511Z,100650.91
2022-08-25T09:47:01.457Z,100651.03
2022-08-25T09:52:16.271Z,100650.19
2022-08-25T09:57:30.260Z,100637.13
2022-08-25T10:02:31.932Z,100638.09
2022-08-25T10:07:30.480Z,100629.34
2022-08-25T10:12:32.928Z,100618.38
2022-08-25T10:17:34.489Z,100616.88
2022-08-25T10:22:32.270Z,100611.03
2022-08-25T10:27:38.872Z,100612.03
2022-08-25T10:32:52.210Z,100598.72
2022-08-25T10:37:57.413Z,100591.91
2022-08-25T10:43:02.662Z,100590.41
2022-08-25T10:48:14.635Z,100587.81
2022-08-25T10:53:22.127Z,100582.78
2022-08-25T10:58:26.147Z,100570.72
2022-08-25T11:03:35.300Z,100572.09
2022-08-25T11:08:35.156Z,100569.59
2022-08-25T11:13:39.095Z,100563.06
2022-08-25T11:18:45.667Z,100552.66
2022-08-25T11:23:47.090Z,100553.06
2022-08-25T11:28:51.388Z,100541.75
2022-08-25T11:33:49.997Z,100543.75
2022-08-25T11:38:53.258Z,100538.06
2022-08-25T11:44:02.211Z,100529.84
2022-08-25T11:49:04.212Z,100533.25
2022-08-25T11:54:15.182Z,100521.91
2022-08-25T11:59:13.297Z,100531.03
2022-08-25T12:04:14.926Z,100529.84
2022-08-25T12:09:20.222Z,100523.25
2022-08-25T12:14:37.299Z,100512.13
2022-08-25T12:19:49.219Z,100512.72
2022-08-25T12:24:50.454Z,100484.69
2022-08-25T12:29:50.827Z,100514.69
2022-08-25T12:35:05.023Z,100515.81
2022-08-25T12:40:05.123Z,100501.63
2022-08-25T12:45:13.811Z,100507.91
2022-08-25T12:50:28.166Z,100500.25
2022-08-25T12:55:26.496Z,100503.66
2022-08-25T13:05:46.407Z,100501.31
2022-08-25T13:10:48.478Z,100492.66
2022-08-25T13:15:48.764Z,100501.78
2022-08-25T13:20:55.562Z,100494.13
2022-08-25T13:25:53.491Z,100479.16
2022-08-25T13:30:57.300Z,100482.25
2022-08-25T13:36:16.236Z,100482.34
2022-08-25T13:41:18.204Z,100464.22
2022-08-25T13:46:20.058Z,100456.25
2022-08-25T13:51:23.207Z,100456.69
2022-08-25T13:56:25.193Z,100449.84
2022-08-25T14:01:47.498Z,100453.47
2022-08-25T14:06:42.641Z,100448.63
2022-08-25T14:11:42.645Z,100444.72
2022-08-25T14:16:46.642Z,100452.22
2022-08-25T14:21:43.973Z,100445.84
2022-08-25T14:26:54.513Z,100447.63
2022-08-25T14:31:52.997Z,100446.56
2022-08-25T14:36:50.179Z,100444.78
2022-08-25T14:41:53.042Z,100444.34
2022-08-25T14:46:51.565Z,100439.56
2022-08-25T14:51:52.432Z,100437.69
2022-08-25T14:56:50.345Z,100437.06
2022-08-25T15:01:47.308Z,100443.75
2022-08-25T15:06:50.191Z,100438.72
2022-08-25T15:11:50.532Z,100438.91
2022-08-25T15:16:49.887Z,100440.88
2022-08-25T15:21:47.363Z,100438.69
2022-08-25T15:26:46.686Z,100441.44
2022-08-25T15:31:44.619Z,100443.63
2022-08-25T15:36:42.487Z,100444.34
2022-08-25T15:41:39.647Z,100451.97
2022-08-25T15:46:41.072Z,100450.91
2022-08-25T15:51:38.739Z,100447.13
2022-08-25T15:56:35.977Z,100446.63
2022-08-25T16:01:34.762Z,100436.50
2022-08-25T16:06:32.313Z,100437.34
2022-08-25T16:11:30.997Z,100441.38
2022-08-25T16:16:29.442Z,100442.81
2022-08-25T16:21:30.020Z,100430.09
2022-08-25T16:26:27.653Z,100438.56
2022-08-25T16:31:25.486Z,100436.88
2022-08-25T16:36:23.252Z,100436.09
2022-08-25T16:41:21.667Z,100439.13
2022-08-25T16:46:20.468Z,100436.94
2022-08-25T16:51:19.423Z,100439.13
2022-08-25T16:56:24.333Z,100437.97
2022-08-25T17:01:24.946Z,100429.81
2022-08-25T17:06:23.855Z,100440.00
2022-08-25T17:11:22.200Z,100460.94
2022-08-25T17:16:20.747Z,100454.34
2022-08-25T17:21:23.945Z,100462.88
2022-08-25T17:26:27.936Z,100452.53
2022-08-25T17:31:26.705Z,100463.06
2022-08-25T17:36:27.215Z,100468.94
2022-08-25T17:41:25.670Z,100480.16
2022-08-25T17:46:23.637Z,100481.28
2022-08-25T17:51:22.509Z,100481.28
2022-08-25T17:56:21.274Z,100483.41
2022-08-25T18:01:20.036Z,100480.19
2022-08-25T18:06:20.173Z,100485.44
2022-08-25T18:11:17.998Z,100492.94
2022-08-25T18:16:15.151Z,100497.94
2022-08-25T18:21:14.094Z,100494.47
2022-08-25T18:26:13.019Z,100500.75
2022-08-25T18:31:11.689Z,100505.63
2022-08-25T18:36:08.969Z,100510.91
2022-08-25T18:41:07.447Z,100507.19
2022-08-25T18:46:05.681Z,100514.28
2022-08-25T18:51:02.840Z,100508.22
2022-08-25T18:55:59.858Z,100520.03
2022-08-25T19:01:00.480Z,100526.88
2022-08-25T19:05:57.889Z,100526.34
2022-08-25T19:10:55.950Z,100526.75
2022-08-25T19:15:52.948Z,100525.44
2022-08-25T19:20:50.690Z,100525.31
2022-08-25T19:25:49.290Z,100531.28
2022-08-25T19:30:50.401Z,100529.63
2022-08-25T19:35:49.295Z,100528.59
2022-08-25T19:40:47.272Z,100523.69
2022-08-25T19:45:44.739Z,100521.81
2022-08-25T19:50:43.514Z,100525.84
2022-08-25T19:55:42.108Z,100525.44
2022-08-25T20:00:39.765Z,100523.47
2022-08-25T20:05:36.984Z,100526.47
2022-08-25T20:10:39.462Z,100527.31
2022-08-25T20:15:39.601Z,100531.09
2022-08-25T20:20:36.498Z,100536.59
2022-08-25T20:25:36.793Z,100539.81
2022-08-25T20:30:34.211Z,100546.84
2022-08-25T20:35:31.720Z,100547.56
2022-08-25T20:40:29.453Z,100556.16
2022-08-25T20:45:26.309Z,100549.09
2022-08-25T20:50:23.384Z,100555.78
2022-08-25T20:55:21.124Z,100560.75
2022-08-25T21:00:18.768Z,100555.53
2022-08-25T21:05:20.458Z,100569.41
2022-08-25T21:10:17.350Z,100557.63
2022-08-25T21:15:17.972Z,100553.72
2022-08-25T21:20:15.784Z,100558.28
2022-08-25T21:25:12.489Z,100549.88
2022-08-25T21:30:09.922Z,100544.19
2022-08-25T21:35:07.868Z,100546.69
2022-08-25T21:40:05.580Z,100535.63
2022-08-25T21:45:04.014Z,100542.69
2022-08-25T21:50:00.674Z,100534.25
2022-08-25T21:54:57.973Z,100542.31
2022-08-25T21:59:54.896Z,100537.59
2022-08-25T22:04:52.285Z,100537.59
2022-08-25T22:09:50.183Z,100542.03
2022-08-25T22:14:47.769Z,100533.75
2022-08-25T22:19:46.018Z,100537.84
2022-08-25T22:24:43.039Z,100519.38
2022-08-25T22:29:39.783Z,100529.13
2022-08-25T22:34:40.131Z,100539.53
2022-08-25T22:39:36.889Z,100533.91
2022-08-25T22:44:37.480Z,100538.41
2022-08-25T22:49:34.816Z,100525.09
2022-08-25T22:54:32.152Z,100531.22
2022-08-25T22:59:28.819Z,100514.84
2022-08-25T23:04:25.487Z,100526.00
2022-08-25T23:09:22.183Z,100520.75
2022-08-25T23:14:19.547Z,100518.72
2022-08-25T23:19:16.718Z,100528.81
2022-08-25T23:24:14.282Z,100512.09
2022-08-25T23:29:27.198Z,100501.97
2022-08-25T23:34:24.504Z,100517.34
2022-08-25T23:39:21.779Z,100517.72
2022-08-25T23:44:21.334Z,100505.78
2022-08-25T23:49:19.774Z,100507.34
2022-08-25T23:54:18.249Z,100503.88
2022-08-25T23:59:16.277Z,100504.66
